Weather Data

Pearl Creek Farm: 8878 N Farm Road 75, Walnut Grove MO 65770

<== Previous Day (Sunday 24 Apr 2016) | Next Day (Tuesday 26 Apr 2016) ==>

Summary Precipitation Data For Monday 25 April 2016

ElementValueUnits
Precipitation0"
Notes(none)
SourcePearl Creek Farm

Summary Temperature Data For Monday 25 April 2016

ElementValueUnits
High Temperature80 oF
Low Temperature61 oF
Average Temperature70 oF
High Humidity73 %
Low Humidity49 %
Average Humidity63 %
SourceSpringfield-Branson National Airport (SGF)

Detail Temperature Data For Monday 25 April 2016

Date / TimeTemp (F)RH (%)Dew Pt (F)Report Date / TimeSource
2016-04-25 00:52:00 62 65 50.0 2017-12-29 17:00:26.17417 Springfield-Branson National Airport (SGF)
2016-04-25 01:52:00 62 65 50.0 2017-12-29 17:00:26.17417 Springfield-Branson National Airport (SGF)
2016-04-25 02:52:00 61 67 50.0 2017-12-29 17:00:26.17417 Springfield-Branson National Airport (SGF)
2016-04-25 03:52:00 61 67 50.0 2017-12-29 17:00:26.17417 Springfield-Branson National Airport (SGF)
2016-04-25 04:52:00 62 67 51.0 2017-12-29 17:00:26.17417 Springfield-Branson National Airport (SGF)
2016-04-25 05:52:00 62 67 51.0 2017-12-29 17:00:26.17417 Springfield-Branson National Airport (SGF)
2016-04-25 06:52:00 64 65 52.0 2017-12-29 17:00:26.17417 Springfield-Branson National Airport (SGF)
2016-04-25 07:52:00 67 63 54.0 2017-12-29 17:00:26.17417 Springfield-Branson National Airport (SGF)
2016-04-25 08:52:00 67 66 55.0 2017-12-29 17:00:26.17417 Springfield-Branson National Airport (SGF)
2016-04-25 09:52:00 66 70 56.0 2017-12-29 17:00:26.17417 Springfield-Branson National Airport (SGF)
2016-04-25 10:52:00 69 68 58.0 2017-12-29 17:00:26.17417 Springfield-Branson National Airport (SGF)
2016-04-25 11:52:00 71 66 59.0 2017-12-29 17:00:26.17417 Springfield-Branson National Airport (SGF)
2016-04-25 12:52:00 75 62 61.0 2017-12-29 17:00:26.17417 Springfield-Branson National Airport (SGF)
2016-04-25 13:52:00 77 58 61.0 2017-12-29 17:00:26.17417 Springfield-Branson National Airport (SGF)
2016-04-25 14:52:00 79 52 60.0 2017-12-29 17:00:26.17417 Springfield-Branson National Airport (SGF)
2016-04-25 15:52:00 80 49 59.0 2017-12-29 17:00:26.17417 Springfield-Branson National Airport (SGF)
2016-04-25 16:52:00 79 49 58.0 2017-12-29 17:00:26.17417 Springfield-Branson National Airport (SGF)
2016-04-25 17:52:00 76 54 58.0 2017-12-29 17:00:26.17417 Springfield-Branson National Airport (SGF)
2016-04-25 18:52:00 74 60 59.0 2017-12-29 17:00:26.17417 Springfield-Branson National Airport (SGF)
2016-04-25 19:52:00 73 62 59.0 2017-12-29 17:00:26.17417 Springfield-Branson National Airport (SGF)
2016-04-25 20:52:00 72 64 59.0 2017-12-29 17:00:26.17417 Springfield-Branson National Airport (SGF)
2016-04-25 21:52:00 70 71 60.0 2017-12-29 17:00:26.17417 Springfield-Branson National Airport (SGF)
2016-04-25 22:52:00 70 71 60.0 2017-12-29 17:00:26.17417 Springfield-Branson National Airport (SGF)
2016-04-25 23:52:00 69 73 60.0 2017-12-29 17:00:26.17417 Springfield-Branson National Airport (SGF)

A total of 24 rows are displayed.